Stratford, WA

11:00 PM PDT on September 16, 2014 (GMT -0700)
Grant County International | Change Station
CLOSE
Current Station
Airport
Location: Moses Lake,
Elevation: 1184 ft
Nearby Weather Stations

Elev 1184 ft 47.21 °N, 119.32 °W | Updated 8 minutes ago

Partly Cloudy
Partly Cloudy
64 °F
Feels Like 64 °F
N
6
Wind Variable Wind from SE

Today
High -- | Low -- °F
--% Chance of Precip.
Yesterday
High -- | Low -- °F
Precip. -- in
6:36 AM 7:06 PM
Last Quarter, 39% visible
Pressure 29.76 in
Visibility 9.0 miles
Clouds Clear
Dew Point 45 °F
Humidity 50%
Rainfall 0.00 in
Snow Depth 0 in , 0 in , 0 in
UV 0 out of 12
Pollen 2.90 out of 12
Air Quality Not available.
Flu Activity Not available.
METAR KMWH 170552Z AUTO 14005KT 9SM CLR 18/07 A2978 RMK AO2 SLP077 T01780072 10294 20178 53005

More Conditions Fewer Conditions

Pressure 29.76 in
Visibility 9.0 miles
Clouds Clear
Dew Point 45 °F
Humidity 50%
Rainfall 0.00 in
Snow Depth 0 in , 0 in , 0 in
UV 0 out of 12
Pollen 2.90 out of 12
Air Quality Not available.
Flu Activity Not available.
METAR KMWH 170552Z AUTO 14005KT 9SM CLR 18/07 A2978 RMK AO2 SLP077 T01780072 10294 20178 53005

More Conditions Fewer Conditions

10-Day Weather Forecast

Almanac

Astronomy

Sep. 16, 2014 Rise Set
Actual Time 6:36 AM PDT 7:06 PM PDT
Civil Twilight 6:05 AM PDT 7:37 PM PDT
Nautical Twilight 5:28 AM PDT 8:14 PM PDT
Astronomical Twilight 4:50 AM PDT 8:51 PM PDT
Moon No Moon Rise 2:52 PM PDT (9/16)
Length of Visible Light 13h 32m
Length of Day
12h 30m
Tomorrow will be 3m 21s shorter.
Last Quarter, 39% of the Moon is Illuminated
Sep 17
Last Quarter
Sep 24
New
Oct 1
First Quarter
Oct 8
Full
Oct 15
Last Quarter

Yesterday's Extremes

State Highs State Lows

Community

WunderPhotos

Upload Photos

1,753,969 photos uploaded!

Nearby

Snow Depth

Station Depth Elevation
Pope Ridge 0 in 3540 ft
Potato Hill 0 in 4500 ft
Wells Creek 0 in 4200 ft
Bunchgrass Meadow 0 in 5000 ft
Olallie Meadows 0 in 3700 ft

Earthquake Activity

City Distance Mag. Time & Date
No recent earthquake activity has been reported nearby.
Minimum magnitude displayed is 2.5.

Coastal Water Temperatures

Place Temperature
No Stations Reporting

Nearby Weather Stations